createdAt,value
2016-09-26T00:00:32.565Z,71.25
2016-09-26T00:01:32.543Z,71.25
2016-09-26T00:02:32.521Z,71.34
2016-09-26T00:03:32.498Z,71.44
2016-09-26T00:04:32.476Z,71.44
2016-09-26T00:05:32.458Z,71.53
2016-09-26T00:06:32.434Z,71.25
2016-09-26T00:07:32.422Z,71.34
2016-09-26T00:08:32.398Z,71.05
2016-09-26T00:09:32.373Z,71.34
2016-09-26T00:10:32.354Z,71.25
2016-09-26T00:11:32.326Z,71.34
2016-09-26T00:12:32.306Z,71.34
2016-09-26T00:13:32.282Z,71.15
2016-09-26T00:14:32.260Z,71.15
2016-09-26T00:15:32.237Z,70.86
2016-09-26T00:16:32.216Z,71.05
2016-09-26T00:17:32.194Z,70.67
2016-09-26T00:18:32.175Z,70.96
2016-09-26T00:19:32.150Z,70.86
2016-09-26T00:20:32.132Z,70.86
2016-09-26T00:21:32.109Z,70.96
2016-09-26T00:22:32.082Z,70.76
2016-09-26T00:23:32.065Z,71.11
2016-09-26T00:24:32.042Z,70.67
2016-09-26T00:25:32.021Z,70.73
2016-09-26T00:26:32.298Z,70.86
2016-09-26T00:27:31.975Z,70.76
2016-09-26T00:28:31.955Z,70.73
2016-09-26T00:29:31.932Z,70.38
2016-09-26T00:30:31.908Z,70.67
2016-09-26T00:31:31.889Z,70.67
2016-09-26T00:32:31.865Z,70.38
2016-09-26T00:33:31.845Z,70.15
2016-09-26T00:34:31.821Z,70.15
2016-09-26T00:35:31.797Z,70.15
2016-09-26T00:36:31.785Z,70.06
2016-09-26T00:37:31.758Z,69.87
2016-09-26T00:38:31.735Z,70.09
2016-09-26T00:39:31.712Z,70.25
2016-09-26T00:40:31.690Z,70.15
2016-09-26T00:41:31.667Z,70.06
2016-09-26T00:42:31.648Z,70.15
2016-09-26T00:43:31.624Z,69.77
2016-09-26T00:44:31.603Z,69.58
2016-09-26T00:45:31.580Z,69.58
2016-09-26T00:46:31.559Z,69.68
2016-09-26T00:47:31.548Z,69.58
2016-09-26T00:48:31.512Z,69.68
2016-09-26T00:49:31.492Z,69.58
2016-09-26T00:50:31.478Z,69.77
2016-09-26T00:51:31.447Z,69.39
2016-09-26T00:52:31.426Z,69.87
2016-09-26T00:53:31.406Z,69.87
2016-09-26T00:54:31.384Z,69.87
2016-09-26T00:55:31.363Z,69.96
2016-09-26T00:56:31.337Z,69.87
2016-09-26T00:57:31.321Z,69.1
2016-09-26T00:58:31.294Z,69.58
2016-09-26T00:59:31.283Z,69.2
2016-09-26T01:00:31.251Z,69.77
2016-09-26T01:01:31.233Z,69.58
2016-09-26T01:02:31.208Z,69.77
2016-09-26T01:03:31.187Z,69.87
2016-09-26T01:04:31.172Z,69.77
2016-09-26T01:05:31.145Z,69.77
2016-09-26T01:06:31.121Z,69.77
2016-09-26T01:07:31.099Z,69.2
2016-09-26T01:08:31.077Z,69.29
2016-09-26T01:09:31.050Z,69.29
2016-09-26T01:10:31.032Z,69.2
2016-09-26T01:11:31.013Z,69.29
2016-09-26T01:12:30.988Z,69.39
2016-09-26T01:13:30.965Z,69.48
2016-09-26T01:14:30.941Z,69.48
2016-09-26T01:15:30.922Z,69.48
2016-09-26T01:16:30.901Z,69.48
2016-09-26T01:17:30.878Z,69.58
2016-09-26T01:18:30.857Z,69.39
2016-09-26T01:19:30.869Z,69.39
2016-09-26T01:20:30.810Z,69.2
2016-09-26T01:21:30.787Z,69.2
2016-09-26T01:22:30.766Z,69.1
2016-09-26T01:23:30.746Z,69.29
2016-09-26T01:24:30.724Z,69.39
2016-09-26T01:25:30.704Z,69.29
2016-09-26T01:26:30.734Z,69.29
2016-09-26T01:27:30.658Z,69.39
2016-09-26T01:28:30.637Z,69.1
2016-09-26T01:29:30.616Z,69.1
2016-09-26T01:30:30.594Z,69.39
2016-09-26T01:31:30.571Z,69.2
2016-09-26T01:32:30.547Z,69.29
2016-09-26T01:33:30.526Z,69.2
2016-09-26T01:34:30.507Z,69.1
2016-09-26T01:35:30.479Z,69.29
2016-09-26T01:36:30.467Z,69.1
2016-09-26T01:37:30.439Z,69.29
2016-09-26T01:38:30.420Z,69.48
2016-09-26T01:39:30.393Z,69.48
2016-09-26T01:40:30.369Z,69.48
2016-09-26T01:41:30.358Z,69.58
2016-09-26T01:42:30.328Z,68.81
2016-09-26T01:43:30.305Z,69.01
2016-09-26T01:44:30.286Z,68.91
2016-09-26T01:45:30.264Z,68.91
2016-09-26T01:46:30.240Z,68.81
2016-09-26T01:47:30.219Z,68.81
2016-09-26T01:48:30.197Z,68.81
2016-09-26T01:49:30.177Z,68.72
2016-09-26T01:50:30.153Z,68.62
2016-09-26T01:51:30.133Z,68.91
2016-09-26T01:52:30.110Z,68.72
2016-09-26T01:53:30.086Z,69.01
2016-09-26T01:54:30.066Z,68.81
2016-09-26T01:55:30.047Z,69.13
2016-09-26T01:56:30.019Z,68.37
2016-09-26T01:57:29.998Z,68.95
2016-09-26T01:58:29.979Z,68.24
2016-09-26T01:59:29.955Z,68.95
2016-09-26T02:00:29.934Z,68.27
2016-09-26T02:01:29.910Z,68.95
2016-09-26T02:02:29.892Z,68.46
2016-09-26T02:03:29.868Z,69.13
2016-09-26T02:04:29.847Z,68.91
2016-09-26T02:05:29.824Z,68.37
2016-09-26T02:06:29.803Z,68.33
2016-09-26T02:07:29.783Z,69.04
2016-09-26T02:08:29.757Z,68.95
2016-09-26T02:09:29.735Z,69.01
2016-09-26T02:10:29.715Z,68.24
2016-09-26T02:11:29.695Z,68.81
2016-09-26T02:12:29.678Z,68.81
2016-09-26T02:13:29.650Z,69.1
2016-09-26T02:14:29.627Z,68.72
2016-09-26T02:15:29.606Z,69.01
2016-09-26T02:16:29.582Z,69.04
2016-09-26T02:17:29.564Z,69.01
2016-09-26T02:18:29.541Z,69.01
2016-09-26T02:19:29.516Z,69.1
2016-09-26T02:20:29.498Z,68.91
2016-09-26T02:21:29.475Z,68.24
2016-09-26T02:22:29.453Z,68.91
2016-09-26T02:23:29.429Z,68.46
2016-09-26T02:24:29.407Z,69.1
2016-09-26T02:25:29.388Z,69.01
2016-09-26T02:26:29.367Z,69.29
2016-09-26T02:27:29.342Z,68.72
2016-09-26T02:28:29.322Z,68.72
2016-09-26T02:29:29.304Z,68.81
2016-09-26T02:30:29.284Z,68.81
2016-09-26T02:31:29.257Z,69.01
2016-09-26T02:32:29.235Z,69.2
2016-09-26T02:33:29.213Z,69.1
2016-09-26T02:34:29.191Z,69.29
2016-09-26T02:35:29.171Z,69.01
2016-09-26T02:36:29.146Z,69.1
2016-09-26T02:37:29.124Z,68.91
2016-09-26T02:38:29.105Z,69.01
2016-09-26T02:39:29.082Z,69.1
2016-09-26T02:40:29.060Z,69.1
2016-09-26T02:41:29.038Z,68.91
2016-09-26T02:42:29.016Z,68.91
2016-09-26T02:43:28.996Z,68.75
2016-09-26T02:44:28.972Z,68.52
2016-09-26T02:45:28.953Z,69.01
2016-09-26T02:46:28.932Z,69.1
2016-09-26T02:47:28.906Z,68.72
2016-09-26T02:48:28.888Z,69.01
2016-09-26T02:49:28.864Z,68.43
2016-09-26T02:50:28.842Z,68.33
2016-09-26T02:51:28.819Z,68.46
2016-09-26T02:52:28.800Z,68.33
2016-09-26T02:53:28.779Z,68.43
2016-09-26T02:54:28.758Z,68.43
2016-09-26T02:55:28.732Z,68.52
2016-09-26T02:56:28.711Z,68.33
2016-09-26T02:57:28.689Z,68.56
2016-09-26T02:58:28.667Z,68.72
2016-09-26T02:59:28.647Z,68.43
2016-09-26T03:00:28.629Z,68.37
2016-09-26T03:01:28.603Z,68.33
2016-09-26T03:02:28.583Z,68.91
2016-09-26T03:03:28.558Z,68.33
2016-09-26T03:04:28.539Z,68.33
2016-09-26T03:05:28.513Z,68.43
2016-09-26T03:06:28.491Z,68.52
2016-09-26T03:07:28.474Z,68.33
2016-09-26T03:08:28.449Z,68.33
2016-09-26T03:09:28.427Z,68.33
2016-09-26T03:10:28.407Z,69.01
2016-09-26T03:11:28.385Z,69.1
2016-09-26T03:12:28.365Z,68.91
2016-09-26T03:13:28.342Z,68.81
2016-09-26T03:14:28.318Z,69.2
2016-09-26T03:15:28.297Z,69.1
2016-09-26T03:16:28.278Z,69.1
2016-09-26T03:17:28.253Z,69.01
2016-09-26T03:18:28.232Z,68.91
2016-09-26T03:19:28.208Z,69.01
2016-09-26T03:20:28.188Z,69.01
2016-09-26T03:21:28.171Z,68.62
2016-09-26T03:22:28.144Z,68.52
2016-09-26T03:23:28.128Z,68.81
2016-09-26T03:24:28.104Z,68.81
2016-09-26T03:25:28.080Z,68.81
2016-09-26T03:26:28.060Z,68.81
2016-09-26T03:27:28.035Z,68.91
2016-09-26T03:28:28.014Z,69.1
2016-09-26T03:29:27.998Z,69.01
2016-09-26T03:30:27.968Z,68.91
2016-09-26T03:31:27.951Z,69.01
2016-09-26T03:32:27.926Z,69.58
2016-09-26T03:33:27.904Z,68.81
2016-09-26T03:34:27.883Z,68.81
2016-09-26T03:35:27.859Z,69.29
2016-09-26T03:36:27.839Z,69.29
2016-09-26T03:37:27.815Z,69.39
2016-09-26T03:38:28.091Z,69.48
2016-09-26T03:39:27.772Z,69.29
2016-09-26T03:40:27.754Z,69.29
2016-09-26T03:41:27.729Z,69.1
2016-09-26T03:42:27.706Z,69.01
2016-09-26T03:43:27.683Z,69.39
2016-09-26T03:44:27.661Z,69.1
2016-09-26T03:45:27.646Z,69.2
2016-09-26T03:46:27.618Z,69.2
2016-09-26T03:47:27.597Z,69.2
2016-09-26T03:48:27.577Z,69.29
2016-09-26T03:49:27.847Z,69.68
2016-09-26T03:50:27.532Z,69.68
2016-09-26T03:51:27.509Z,69.39
2016-09-26T03:52:27.486Z,69.29
2016-09-26T03:53:27.468Z,69.39
2016-09-26T03:54:27.442Z,69.48
2016-09-26T03:55:27.420Z,69.58
2016-09-26T03:56:27.398Z,69.2
2016-09-26T03:57:27.381Z,69.39
2016-09-26T03:58:27.355Z,69.29
2016-09-26T03:59:27.630Z,69.68
2016-09-26T04:00:27.311Z,69.48
2016-09-26T04:01:27.288Z,70.35
2016-09-26T04:02:27.270Z,70.25
2016-09-26T04:03:27.245Z,70.06
2016-09-26T04:04:27.226Z,70.35
2016-09-26T04:05:27.203Z,69.96
2016-09-26T04:06:27.179Z,69.96
2016-09-26T04:07:27.157Z,69.77
2016-09-26T04:08:27.137Z,69.87
2016-09-26T04:09:27.113Z,70.06
2016-09-26T04:10:27.096Z,70.15
2016-09-26T04:11:27.073Z,70.31
2016-09-26T04:12:27.054Z,70.21
2016-09-26T04:13:27.028Z,70.31
2016-09-26T04:14:27.007Z,70.12
2016-09-26T04:15:26.982Z,70.31
2016-09-26T04:16:26.965Z,70.15
2016-09-26T04:17:26.938Z,70.03
2016-09-26T04:18:26.917Z,70.03
2016-09-26T04:19:26.897Z,70.31
2016-09-26T04:20:26.870Z,70.21
2016-09-26T04:21:26.863Z,70.31
2016-09-26T04:22:26.827Z,70.12
2016-09-26T04:23:26.810Z,70.21
2016-09-26T04:24:26.782Z,70.6
2016-09-26T04:25:26.762Z,70.7
2016-09-26T04:26:26.738Z,70.41
2016-09-26T04:27:26.717Z,70.41
2016-09-26T04:28:26.697Z,70.21
2016-09-26T04:29:26.971Z,70.89
2016-09-26T04:30:26.648Z,70.98
2016-09-26T04:31:26.627Z,70.98
2016-09-26T04:32:26.603Z,70.89
2016-09-26T04:33:26.597Z,70.79
2016-09-26T04:34:26.561Z,70.79
2016-09-26T04:35:26.537Z,70.7
2016-09-26T04:36:26.517Z,70.79
2016-09-26T04:37:26.494Z,70.79
2016-09-26T04:38:26.468Z,70.6
2016-09-26T04:39:26.448Z,70.89
2016-09-26T04:40:26.428Z,70.7
2016-09-26T04:41:26.402Z,71.08
2016-09-26T04:42:26.380Z,70.89
2016-09-26T04:43:26.371Z,71.08
2016-09-26T04:44:26.345Z,70.6
2016-09-26T04:45:26.312Z,71.08
2016-09-26T04:46:26.296Z,71.27
2016-09-26T04:47:26.269Z,71.42
2016-09-26T04:48:26.249Z,71.14
2016-09-26T04:49:26.228Z,71.33
2016-09-26T04:50:26.200Z,71.27
2016-09-26T04:51:26.178Z,71.42
2016-09-26T04:52:26.152Z,71.23
2016-09-26T04:53:26.135Z,71.04
2016-09-26T04:54:26.109Z,71.23
2016-09-26T04:55:26.084Z,71.33
2016-09-26T04:56:26.077Z,71.04
2016-09-26T04:57:26.041Z,71.04
2016-09-26T04:58:26.015Z,71.42
2016-09-26T04:59:26.000Z,71.71
2016-09-26T05:00:25.970Z,71.62
2016-09-26T05:01:25.949Z,71.71
2016-09-26T05:02:25.926Z,72
2016-09-26T05:03:25.903Z,72.09
2016-09-26T05:04:25.881Z,72
2016-09-26T05:05:25.859Z,72.29
2016-09-26T05:06:25.836Z,72.48
2016-09-26T05:07:25.812Z,72.38
2016-09-26T05:08:25.790Z,72.29
2016-09-26T05:09:25.768Z,72.38
2016-09-26T05:10:25.746Z,72.44
2016-09-26T05:11:25.721Z,72.67
2016-09-26T05:12:25.698Z,72.67
2016-09-26T05:13:25.675Z,73.02
2016-09-26T05:14:25.652Z,73.02
2016-09-26T05:15:25.629Z,72.73
2016-09-26T05:16:25.611Z,72.73
2016-09-26T05:17:25.583Z,72.83
2016-09-26T05:18:25.558Z,73.21
2016-09-26T05:19:25.538Z,72.63
2016-09-26T05:20:25.513Z,73.11
2016-09-26T05:21:25.490Z,73.5
2016-09-26T05:22:25.472Z,73.3
2016-09-26T05:23:25.445Z,72.83
2016-09-26T05:24:25.422Z,73.21
2016-09-26T05:25:25.399Z,73.11
2016-09-26T05:26:25.377Z,73.69
2016-09-26T05:27:25.351Z,73.3
2016-09-26T05:28:25.329Z,73.69
2016-09-26T05:29:25.305Z,73.21
2016-09-26T05:30:25.283Z,73.3
2016-09-26T05:31:25.257Z,73.02
2016-09-26T05:32:25.237Z,72.83
2016-09-26T05:33:25.210Z,72.98
2016-09-26T05:34:25.187Z,72.98
2016-09-26T05:35:25.164Z,73.36
2016-09-26T05:36:25.142Z,73.75
2016-09-26T05:37:25.115Z,73.65
2016-09-26T05:38:25.094Z,73.27
2016-09-26T05:39:25.072Z,73.17
2016-09-26T05:40:25.048Z,73.65
2016-09-26T05:41:25.024Z,73.55
2016-09-26T05:42:25.001Z,73.27
2016-09-26T05:43:24.979Z,73.17
2016-09-26T05:44:24.956Z,73.17
2016-09-26T05:45:24.931Z,73.55
2016-09-26T05:46:24.908Z,73.27
2016-09-26T05:47:24.883Z,73.36
2016-09-26T05:48:24.859Z,73.36
2016-09-26T05:49:24.835Z,73.46
2016-09-26T05:50:24.812Z,73.46
2016-09-26T05:51:24.788Z,73.46
2016-09-26T05:52:24.767Z,73.46
2016-09-26T05:53:24.743Z,73.75
2016-09-26T05:54:24.718Z,73.36
2016-09-26T05:55:24.695Z,73.65
2016-09-26T05:56:24.671Z,73.55
2016-09-26T05:57:24.647Z,73.84
2016-09-26T05:58:24.623Z,73.75
2016-09-26T05:59:24.601Z,73.65
2016-09-26T06:00:24.580Z,73.75
2016-09-26T06:01:24.552Z,73.75
2016-09-26T06:02:24.529Z,73.75
2016-09-26T06:03:24.504Z,73.65
2016-09-26T06:04:24.483Z,73.65
2016-09-26T06:05:24.467Z,73.65
2016-09-26T06:06:24.438Z,73.84
2016-09-26T06:07:24.412Z,73.84
2016-09-26T06:08:24.391Z,73.36
2016-09-26T06:09:24.365Z,73.75
2016-09-26T06:10:24.342Z,73.84
2016-09-26T06:11:24.319Z,73.84
2016-09-26T06:12:24.295Z,73.84
2016-09-26T06:13:24.274Z,73.84
2016-09-26T06:14:24.249Z,73.65
2016-09-26T06:15:24.224Z,73.84
2016-09-26T06:16:24.202Z,73.84
2016-09-26T06:17:24.178Z,73.65
2016-09-26T06:18:24.154Z,73.84
2016-09-26T06:19:24.129Z,73.94
2016-09-26T06:20:24.109Z,74.04
2016-09-26T06:21:24.084Z,73.84
2016-09-26T06:22:24.060Z,73.84
2016-09-26T06:23:24.045Z,73.55
2016-09-26T06:24:24.013Z,73.65
2016-09-26T06:25:23.990Z,73.36
2016-09-26T06:26:23.965Z,73.27
2016-09-26T06:27:23.940Z,73.36
2016-09-26T06:28:23.921Z,73.27
2016-09-26T06:29:23.898Z,73.27
2016-09-26T06:30:23.874Z,73.46
2016-09-26T06:31:23.857Z,73.55
2016-09-26T06:32:23.832Z,72.79
2016-09-26T06:33:23.810Z,72.88
2016-09-26T06:34:23.780Z,72.88
2016-09-26T06:35:23.754Z,73.27
2016-09-26T06:36:23.734Z,73.36
2016-09-26T06:37:23.710Z,73.08
2016-09-26T06:38:23.686Z,73.36
2016-09-26T06:39:23.664Z,73.36
2016-09-26T06:40:23.639Z,72.98
2016-09-26T06:41:23.616Z,72.88
2016-09-26T06:42:23.593Z,73.36
2016-09-26T06:43:23.566Z,72.79
2016-09-26T06:44:23.544Z,73.27
2016-09-26T06:45:23.523Z,73.27
2016-09-26T06:46:23.495Z,73.08
2016-09-26T06:47:23.478Z,73.08
2016-09-26T06:48:23.453Z,73.08
2016-09-26T06:49:23.429Z,72.88
2016-09-26T06:50:23.406Z,72.98
2016-09-26T06:51:23.386Z,72.88
2016-09-26T06:52:23.363Z,72.88
2016-09-26T06:53:23.337Z,73.08
2016-09-26T06:54:23.312Z,73.08
2016-09-26T06:55:23.289Z,72.6
2016-09-26T06:56:23.266Z,72.6
2016-09-26T06:57:23.243Z,72.79
2016-09-26T06:58:23.222Z,72.12
2016-09-26T06:59:23.205Z,72.02
2016-09-26T07:00:23.171Z,72.22
2016-09-26T07:01:23.149Z,72.31
2016-09-26T07:02:23.129Z,72.31
2016-09-26T07:03:23.107Z,72.22
2016-09-26T07:04:23.080Z,72.12
2016-09-26T07:05:23.060Z,72.5
2016-09-26T07:06:23.036Z,72.02
2016-09-26T07:07:23.013Z,72.22
2016-09-26T07:08:22.986Z,72.31
2016-09-26T07:09:22.966Z,72.12
2016-09-26T07:10:22.941Z,72.31
2016-09-26T07:11:22.925Z,72.12
2016-09-26T07:12:22.901Z,72.31
2016-09-26T07:13:22.874Z,71.73
2016-09-26T07:14:22.850Z,71.73
2016-09-26T07:15:22.824Z,71.93
2016-09-26T07:16:22.803Z,71.64
2016-09-26T07:17:22.781Z,71.93
2016-09-26T07:18:22.758Z,71.93
2016-09-26T07:19:22.737Z,71.64
2016-09-26T07:20:22.712Z,72.06
2016-09-26T07:21:22.690Z,72.02
2016-09-26T07:22:22.668Z,71.64
2016-09-26T07:23:22.642Z,71.45
2016-09-26T07:24:22.621Z,71.68
2016-09-26T07:25:22.598Z,71.97
2016-09-26T07:26:22.572Z,71.87
2016-09-26T07:27:22.558Z,71.48
2016-09-26T07:28:22.531Z,71.58
2016-09-26T07:29:22.505Z,71.77
2016-09-26T07:30:22.485Z,71.58
2016-09-26T07:31:22.471Z,71.87
2016-09-26T07:32:22.449Z,71.77
2016-09-26T07:33:22.414Z,71.11
2016-09-26T07:34:22.392Z,71.2
2016-09-26T07:35:22.368Z,71.3
2016-09-26T07:36:22.347Z,71.39
2016-09-26T07:37:22.325Z,71.39
2016-09-26T07:38:22.302Z,71.3
2016-09-26T07:39:22.279Z,71.2
2016-09-26T07:40:22.256Z,71.11
2016-09-26T07:41:22.234Z,71.2
2016-09-26T07:42:22.211Z,71.3
2016-09-26T07:43:22.191Z,70.91
2016-09-26T07:44:22.165Z,71.11
2016-09-26T07:45:22.145Z,71.2
2016-09-26T07:46:22.121Z,70.72
2016-09-26T07:47:22.107Z,70.85
2016-09-26T07:48:22.078Z,70.62
2016-09-26T07:49:22.054Z,70.85
2016-09-26T07:50:22.033Z,70.56
2016-09-26T07:51:22.010Z,70.66
2016-09-26T07:52:21.987Z,70.56
2016-09-26T07:53:21.963Z,70.85
2016-09-26T07:54:21.939Z,70.76
2016-09-26T07:55:21.916Z,70.18
2016-09-26T07:56:21.898Z,70.56
2016-09-26T07:57:21.883Z,70.56
2016-09-26T07:58:21.851Z,70.37
2016-09-26T07:59:21.829Z,70.28
2016-09-26T08:00:21.807Z,70.28
2016-09-26T08:01:21.812Z,70.18
2016-09-26T08:02:21.792Z,70.28
2016-09-26T08:03:21.743Z,69.89
2016-09-26T08:04:21.746Z,69.89
2016-09-26T08:05:21.696Z,70.09
2016-09-26T08:06:21.669Z,70.09
2016-09-26T08:07:21.651Z,69.42
2016-09-26T08:08:21.629Z,69.6
2016-09-26T08:09:21.605Z,69.83
2016-09-26T08:10:21.591Z,69.45
2016-09-26T08:11:21.562Z,69.54
2016-09-26T08:12:21.537Z,69.83
2016-09-26T08:13:21.516Z,69.7
2016-09-26T08:14:21.495Z,69.83
2016-09-26T08:15:21.472Z,69.83
2016-09-26T08:16:21.450Z,69.83
2016-09-26T08:17:21.433Z,69.54
2016-09-26T08:18:21.407Z,69.35
2016-09-26T08:19:21.386Z,69.26
2016-09-26T08:20:21.361Z,69.26
2016-09-26T08:21:21.349Z,69.17
2016-09-26T08:22:21.319Z,69.45
2016-09-26T08:23:21.296Z,68.68
2016-09-26T08:24:21.274Z,68.59
2016-09-26T08:25:21.251Z,68.97
2016-09-26T08:26:21.230Z,68.4
2016-09-26T08:27:21.210Z,68.59
2016-09-26T08:28:21.187Z,68.4
2016-09-26T08:29:21.166Z,68.3
2016-09-26T08:30:21.146Z,68.3
2016-09-26T08:31:21.121Z,68.21
2016-09-26T08:32:21.098Z,68.01
2016-09-26T08:33:21.077Z,68.14
2016-09-26T08:34:21.056Z,68.11
2016-09-26T08:35:21.032Z,68.24
2016-09-26T08:36:21.012Z,68.14
2016-09-26T08:37:20.990Z,68.3
2016-09-26T08:38:20.968Z,68.14
2016-09-26T08:39:20.944Z,68.11
2016-09-26T08:40:20.925Z,67.82
2016-09-26T08:41:20.906Z,67.76
2016-09-26T08:42:20.881Z,67.85
2016-09-26T08:43:20.859Z,67.66
2016-09-26T08:44:20.836Z,67.38
2016-09-26T08:45:20.817Z,67.09
2016-09-26T08:46:20.957Z,67.18
2016-09-26T08:47:20.773Z,67.28
2016-09-26T08:48:20.752Z,67.09
2016-09-26T08:49:20.733Z,66.8
2016-09-26T08:50:20.706Z,67.28
2016-09-26T08:51:20.985Z,66.99
2016-09-26T08:52:20.670Z,66.99
2016-09-26T08:53:20.651Z,67.28
2016-09-26T08:54:20.622Z,66.51
2016-09-26T08:55:20.600Z,66.89
2016-09-26T08:56:20.594Z,66.45
2016-09-26T08:57:20.560Z,66.61
2016-09-26T08:58:21.138Z,66.83
2016-09-26T08:59:20.518Z,66.35
2016-09-26T09:00:20.495Z,66.74
2016-09-26T09:01:20.472Z,66.26
2016-09-26T09:02:20.453Z,66.06
2016-09-26T09:03:20.432Z,65.88
2016-09-26T09:04:20.412Z,66.26
2016-09-26T09:05:20.394Z,66.26
2016-09-26T09:06:20.367Z,65.97
2016-09-26T09:07:20.347Z,66.26
2016-09-26T09:08:20.325Z,65.68
2016-09-26T09:09:20.304Z,65.88
2016-09-26T09:10:20.281Z,66.06
2016-09-26T09:11:20.265Z,65.97
2016-09-26T09:12:20.260Z,65.49
2016-09-26T09:13:20.230Z,65.39
2016-09-26T09:14:20.227Z,65.2
2016-09-26T09:15:20.180Z,65.11
2016-09-26T09:16:20.155Z,64.95
2016-09-26T09:17:20.133Z,64.95
2016-09-26T09:18:20.146Z,65.05
2016-09-26T09:19:20.093Z,64.76
2016-09-26T09:20:20.073Z,64.37
2016-09-26T09:21:20.053Z,64.18
2016-09-26T09:22:20.031Z,64.47
2016-09-26T09:23:20.011Z,63.99
2016-09-26T09:24:19.989Z,64.18
2016-09-26T09:25:19.973Z,63.89
2016-09-26T09:26:19.946Z,63.83
2016-09-26T09:27:19.925Z,63.64
2016-09-26T09:28:19.908Z,63.35
2016-09-26T09:29:19.886Z,63.92
2016-09-26T09:30:19.863Z,63.35
2016-09-26T09:31:19.846Z,63.73
2016-09-26T09:32:19.827Z,63.73
2016-09-26T09:33:19.805Z,63.16
2016-09-26T09:34:19.783Z,63.16
2016-09-26T09:35:19.761Z,63.45
2016-09-26T09:36:19.742Z,63.35
2016-09-26T09:37:19.721Z,62.77
2016-09-26T09:38:19.700Z,62.68
2016-09-26T09:39:19.681Z,62.48
2016-09-26T09:40:19.661Z,62.48
2016-09-26T09:41:19.639Z,62.39
2016-09-26T09:42:19.618Z,62.19
2016-09-26T09:43:19.601Z,62.58
2016-09-26T09:44:19.582Z,62.13
2016-09-26T09:45:19.559Z,61.94
2016-09-26T09:46:19.541Z,61.84
2016-09-26T09:47:19.521Z,61.84
2016-09-26T09:48:19.496Z,61.75
2016-09-26T09:49:19.479Z,61.36
2016-09-26T09:50:19.459Z,61.65
2016-09-26T09:51:19.438Z,61.17
2016-09-26T09:52:19.420Z,61.08
2016-09-26T09:53:19.399Z,61.08
2016-09-26T09:54:19.378Z,60.6
2016-09-26T09:55:19.357Z,60.98
2016-09-26T09:56:19.337Z,60.88
2016-09-26T09:57:19.319Z,60.69
2016-09-26T09:58:19.296Z,60.4
2016-09-26T09:59:19.279Z,60.24
2016-09-26T10:00:19.260Z,60.14
2016-09-26T10:01:19.535Z,59.86
2016-09-26T10:02:19.224Z,59.76
2016-09-26T10:03:19.200Z,59.19
2016-09-26T10:04:19.183Z,59.09
2016-09-26T10:05:19.165Z,58.7
2016-09-26T10:06:19.143Z,59.09
2016-09-26T10:07:19.126Z,58.54
2016-09-26T10:08:19.105Z,58.54
2016-09-26T10:09:19.410Z,58.25
2016-09-26T10:10:19.065Z,58.15
2016-09-26T10:11:19.052Z,57.48
2016-09-26T10:12:19.029Z,57.7
2016-09-26T10:13:19.011Z,57.42
2016-09-26T10:14:18.993Z,56.93
2016-09-26T10:15:18.984Z,56.65
2016-09-26T10:16:18.954Z,56.55
2016-09-26T10:17:18.940Z,56.36
2016-09-26T10:18:18.919Z,56.45
2016-09-26T10:19:18.899Z,55.98
2016-09-26T10:20:18.883Z,55.78
2016-09-26T10:21:18.864Z,55.81
2016-09-26T10:22:18.845Z,55.62
2016-09-26T10:23:18.829Z,55.04
2016-09-26T10:24:18.809Z,55.04
2016-09-26T10:25:18.792Z,54.36
2016-09-26T10:26:18.787Z,54.36
2016-09-26T10:27:18.754Z,54.39
2016-09-26T10:28:18.742Z,54.65
2016-09-26T10:29:18.722Z,54.1
2016-09-26T10:30:18.708Z,54.17
2016-09-26T10:31:18.688Z,53.72
2016-09-26T10:32:18.669Z,53.33
2016-09-26T10:33:18.652Z,52.95
2016-09-26T10:34:18.636Z,53.05
2016-09-26T10:35:18.616Z,52.66
2016-09-26T10:36:18.600Z,52.47
2016-09-26T10:37:18.583Z,52.3
2016-09-26T10:38:18.861Z,51.92
2016-09-26T10:39:18.550Z,51.72
2016-09-26T10:40:18.534Z,51.72
2016-09-26T10:41:18.518Z,51.62
2016-09-26T10:42:18.505Z,51.05
2016-09-26T10:43:18.480Z,51.14
2016-09-26T10:44:18.464Z,51.36
2016-09-26T10:45:18.447Z,50.69
2016-09-26T10:46:18.443Z,50.4
2016-09-26T10:47:18.414Z,50.69
2016-09-26T10:48:18.399Z,49.75
2016-09-26T10:49:18.388Z,49.55
2016-09-26T10:50:18.370Z,49.37
2016-09-26T10:51:18.356Z,49.07
2016-09-26T10:52:18.334Z,48.88
2016-09-26T10:53:18.320Z,49
2016-09-26T10:54:18.305Z,48.33
2016-09-26T10:55:18.286Z,48.13
2016-09-26T10:56:18.270Z,47.36
2016-09-26T10:57:18.255Z,47.65
2016-09-26T10:58:18.240Z,47.45
2016-09-26T10:59:18.223Z,46.9
2016-09-26T11:00:18.210Z,46.51
2016-09-26T11:01:18.190Z,46.03
2016-09-26T11:02:18.176Z,45.75
2016-09-26T11:03:18.159Z,45.57
2016-09-26T11:04:18.147Z,45.67
2016-09-26T11:05:18.127Z,45.48
2016-09-26T11:06:18.111Z,45.18
2016-09-26T11:07:18.097Z,45.38
2016-09-26T11:08:18.093Z,45.28
2016-09-26T11:09:18.064Z,45
2016-09-26T11:10:18.052Z,44.7
2016-09-26T11:11:18.035Z,44.7
2016-09-26T11:12:18.025Z,43.64
2016-09-26T11:13:18.005Z,43.74
2016-09-26T11:14:17.986Z,43.72
2016-09-26T11:15:17.974Z,44.2
2016-09-26T11:16:17.957Z,44.2
2016-09-26T11:17:17.937Z,44.46
2016-09-26T11:18:17.927Z,44.46
2016-09-26T11:19:17.909Z,44.66
2016-09-26T11:20:17.891Z,44.56
2016-09-26T11:21:18.025Z,44.56
2016-09-26T11:22:17.861Z,44.85
2016-09-26T11:23:17.841Z,44.93
2016-09-26T11:24:17.829Z,45.21
2016-09-26T11:25:17.811Z,45.21
2016-09-26T11:26:17.800Z,45.12
2016-09-26T11:27:17.782Z,45.12
2016-09-26T11:28:17.762Z,45.03
2016-09-26T11:29:17.748Z,45
2016-09-26T11:30:17.730Z,45.48
2016-09-26T11:31:17.714Z,45.39
2016-09-26T11:32:17.698Z,45.87
2016-09-26T11:33:17.680Z,45.68
2016-09-26T11:34:17.667Z,45.68
2016-09-26T11:35:17.647Z,45.58
2016-09-26T11:36:17.630Z,45.68
2016-09-26T11:37:17.611Z,45.87
2016-09-26T11:38:17.595Z,46.35
2016-09-26T11:39:17.578Z,46.06
2016-09-26T11:40:17.562Z,46.14
2016-09-26T11:41:17.546Z,46.06
2016-09-26T11:42:17.525Z,46.06
2016-09-26T11:43:17.510Z,46.15
2016-09-26T11:44:17.491Z,46.06
2016-09-26T11:45:17.474Z,46.06
2016-09-26T11:46:17.456Z,46.06
2016-09-26T11:47:17.437Z,46.06
2016-09-26T11:48:17.423Z,46.15
2016-09-26T11:49:17.409Z,46.45
2016-09-26T11:50:17.389Z,46.64
2016-09-26T11:51:17.371Z,46.55
2016-09-26T11:52:17.350Z,46.04
2016-09-26T11:53:17.334Z,46.06
2016-09-26T11:54:17.318Z,45.94
2016-09-26T11:55:17.299Z,46.52
2016-09-26T11:56:17.582Z,45.84
2016-09-26T11:57:17.265Z,46.64
2016-09-26T11:58:17.246Z,46.64
2016-09-26T11:59:17.233Z,46.52
2016-09-26T12:00:17.265Z,46.64
2016-09-26T12:01:17.195Z,45.87
2016-09-26T12:02:17.179Z,46.06
2016-09-26T12:03:17.160Z,46.25
2016-09-26T12:04:17.142Z,46.25
2016-09-26T12:05:17.127Z,46.42
2016-09-26T12:06:17.108Z,45.87
2016-09-26T12:07:17.098Z,45.68
2016-09-26T12:08:17.154Z,45.48
2016-09-26T12:09:17.353Z,45.58
2016-09-26T12:10:17.648Z,45.68
2016-09-26T12:11:17.096Z,45.29
2016-09-26T12:12:17.012Z,45.29
2016-09-26T12:13:16.987Z,45.39
2016-09-26T12:14:16.973Z,45.1
2016-09-26T12:15:16.952Z,45.1
2016-09-26T12:16:16.935Z,44.81
2016-09-26T12:17:16.917Z,44.52
2016-09-26T12:18:16.897Z,44.23
2016-09-26T12:19:16.883Z,44.04
2016-09-26T12:20:16.919Z,43.37
2016-09-26T12:21:16.849Z,42.8
2016-09-26T12:22:16.830Z,42.42
2016-09-26T12:23:16.811Z,41.94
2016-09-26T12:24:16.797Z,41.36
2016-09-26T12:25:16.778Z,41.27
2016-09-26T12:26:16.760Z,40.88
2016-09-26T12:27:16.741Z,40.69
2016-09-26T12:28:16.729Z,39.82
2016-09-26T12:29:16.711Z,39.82
2016-09-26T12:30:16.697Z,38.95
2016-09-26T12:31:16.675Z,39.04
2016-09-26T12:32:16.657Z,39.04
2016-09-26T12:33:16.643Z,39.04
2016-09-26T12:34:16.622Z,38.76
2016-09-26T12:35:16.608Z,38.85
2016-09-26T12:36:16.590Z,38.95
2016-09-26T12:37:16.577Z,38.85
2016-09-26T12:38:16.558Z,39.04
2016-09-26T12:39:16.539Z,39.06
2016-09-26T12:40:16.519Z,39.16
2016-09-26T12:41:16.505Z,38.78
2016-09-26T12:42:16.489Z,38.68
2016-09-26T12:43:16.468Z,38.58
2016-09-26T12:44:16.454Z,38.49
2016-09-26T12:45:16.435Z,38.49
2016-09-26T12:46:16.423Z,38.49
2016-09-26T12:47:16.402Z,38.49
2016-09-26T12:48:16.385Z,38.58
2016-09-26T12:49:16.387Z,38.49
2016-09-26T12:50:16.356Z,38.39
2016-09-26T12:51:16.484Z,38.58
2016-09-26T12:52:16.320Z,38.29
2016-09-26T12:53:16.302Z,38.1
2016-09-26T12:54:16.288Z,37.62
2016-09-26T12:55:16.270Z,37.71